Peary Spirit — C6YM3 — position and weather

sailwx.info

Track history (hours):
 
Tides and Currents Weather Stations Pressure Air Temp Water Temp Dewpoint Dewpoint Depression Visibility Wind Speed Wind Dir Waves Ship Positions

Peary Spirit

Last reported at 2016-Jul-26 14:14 UTC. Time now 2016-Jul-27 09:39 UTC.
Position N 58°51' E 004°28'.

Length 249 m; draft 9.4 m.

Type: Tanker. MMSI: 311027600.

Date/timePositionNaut miles runAvg speedWind from/ knotsBaromVisibWave heightAir tempDewpointWater temp
2016-Jul-26 14:14N 58°51' E 004°28'1215.1
2016-Jul-26 13:28N 58°43' E 004°44'1415.2
2016-Jul-26 12:33N 58°33' E 005°03'1515.3
2016-Jul-26 11:33N 58°22' E 005°23'1815.9
2016-Jul-26 10:27N 58°11' E 005°49'1516.3
2016-Jul-26 09:33N 58°01' E 006°09'1515.2
2016-Jul-26 08:33N 57°50' E 006°30'1414.1
2016-Jul-26 07:33N 57°47' E 006°55'10914.8
2016-Jul-26 00:11N 57°49' E 010°19'914.4
2016-Jul-25 23:33N 57°49' E 010°36'1211.7
2016-Jul-25 22:34N 57°43' E 010°55'1615.6
2016-Jul-25 21:33N 57°33' E 011°16'1515.3
2016-Jul-25 20:33N 57°20' E 011°31'1515.3
2016-Jul-25 19:33N 57°05' E 011°41'1514.9
2016-Jul-25 18:33N 56°51' E 011°50'1414.1
2016-Jul-25 17:34N 56°37' E 011°46'1616.1
2016-Jul-25 16:34N 56°24' E 011°31'3316.1
2016-Jul-25 14:30N 55°56' E 010°58'  
2016-Jul-23 03:24N 55°40' E 011°06'1 1.6
2016-Jul-23 02:31N 55°40' E 011°03'6 2.8
2016-Jul-23 00:33N 55°43' E 010°55'0 0.0
2016-Jul-22 23:33N 55°43' E 010°55'0 0.0
2016-Jul-22 08:06N 55°43' E 010°55'0 0.1
2016-Jul-22 07:33N 55°43' E 010°54'0 0.0
2016-Jul-22 05:33N 55°43' E 010°54'0 0.0
2016-Jul-22 04:33N 55°43' E 010°54'0 0.0
2016-Jul-22 03:33N 55°43' E 010°54'0 0.0
2016-Jul-22 02:27N 55°43' E 010°54'0 0.1
2016-Jul-22 01:33N 55°43' E 010°54'0 0.1
2016-Jul-22 00:33N 55°43' E 010°55'0 0.0
2016-Jul-21 23:33N 55°43' E 010°55'0 0.0
2016-Jul-21 22:15N 55°43' E 010°55'0 0.1
2016-Jul-21 21:27N 55°43' E 010°55'0 0.0
2016-Jul-21 06:12N 55°43' E 010°54'0 0.0
2016-Jul-21 05:33N 55°43' E 010°54'0 0.0
2016-Jul-21 04:33N 55°43' E 010°54'0 0.0
2016-Jul-21 03:33N 55°43' E 010°54'0 0.0
2016-Jul-21 02:33N 55°43' E 010°54'0 0.1
2016-Jul-21 01:27N 55°43' E 010°54'0 0.1
2016-Jul-21 00:33N 55°43' E 010°55'0 0.0
2016-Jul-20 16:03N 55°43' E 010°55'55 3.6
2016-Jul-20 00:33N 56°32' E 011°38'1212.0
2016-Jul-19 23:33N 56°43' E 011°49'1211.9
2016-Jul-19 22:34N 56°54' E 011°47'1212.2
2016-Jul-19 21:33N 57°06' E 011°39'1212.1
2016-Jul-19 20:33N 57°17' E 011°32'1312.8
2016-Jul-19 19:33N 57°29' E 011°22'1212.0
2016-Jul-19 18:33N 57°37' E 011°05'1212.2
2016-Jul-19 17:33N 57°46' E 010°49'1111.3
2016-Jul-19 16:33N 57°47' E 010°28'1410.7
2016-Jul-19 15:15N 57°45' E 010°02'811.2
2016-Jul-19 14:33N 57°45' E 009°47'1111.2
2016-Jul-19 13:33N 57°44' E 009°26'1211.4
2016-Jul-19 12:30N 57°43' E 009°04'1110.6
2016-Jul-19 11:29N 57°42' E 008°43'1111.7
2016-Jul-19 10:30N 57°41' E 008°22'2411.8
2016-Jul-19 08:27N 57°41' E 007°37'1511.5
2016-Jul-19 07:11N 57°42' E 007°09'2911.0
2016-Jul-19 04:34N 57°51' E 006°18'1211.5
2016-Jul-19 03:33N 57°59' E 006°02'1211.6
2016-Jul-19 02:32N 58°07' E 005°46'1111.3
2016-Jul-19 01:32N 58°14' E 005°30'1512.5
2016-Jul-19 00:19N 58°23' E 005°07'912.1
2016-Jul-18 23:33N 58°30' E 004°55'1212.2
2016-Jul-18 22:33N 58°38' E 004°37'1611.9
2016-Jul-18 21:14N 58°48' E 004°13'  
Track history (hours):
 
Tides and Currents Weather Stations Pressure Air Temp Water Temp Dewpoint Dewpoint Depression Visibility Wind Speed Wind Dir Waves Ship Positions

Peary Spirit

Last reported at 2016-Jul-26 14:14 UTC. Time now 2016-Jul-27 09:39 UTC.
Position N 58°51' E 004°28'.

Length 249 m; draft 9.4 m.

Type: Tanker. MMSI: 311027600.

Date/timePositionNaut miles runAvg speedWind from/ knotsBaromVisibWave heightAir tempDewpointWater temp
2016-Jul-26 14:14N 58°51' E 004°28'1215.1
2016-Jul-26 13:28N 58°43' E 004°44'1415.2
2016-Jul-26 12:33N 58°33' E 005°03'1515.3
2016-Jul-26 11:33N 58°22' E 005°23'1815.9
2016-Jul-26 10:27N 58°11' E 005°49'1516.3
2016-Jul-26 09:33N 58°01' E 006°09'1515.2
2016-Jul-26 08:33N 57°50' E 006°30'1414.1
2016-Jul-26 07:33N 57°47' E 006°55'10914.8
2016-Jul-26 00:11N 57°49' E 010°19'914.4
2016-Jul-25 23:33N 57°49' E 010°36'1211.7
2016-Jul-25 22:34N 57°43' E 010°55'1615.6
2016-Jul-25 21:33N 57°33' E 011°16'1515.3
2016-Jul-25 20:33N 57°20' E 011°31'1515.3
2016-Jul-25 19:33N 57°05' E 011°41'1514.9
2016-Jul-25 18:33N 56°51' E 011°50'1414.1
2016-Jul-25 17:34N 56°37' E 011°46'1616.1
2016-Jul-25 16:34N 56°24' E 011°31'3316.1
2016-Jul-25 14:30N 55°56' E 010°58'  
2016-Jul-23 03:24N 55°40' E 011°06'1 1.6
2016-Jul-23 02:31N 55°40' E 011°03'6 2.8
2016-Jul-23 00:33N 55°43' E 010°55'0 0.0
2016-Jul-22 23:33N 55°43' E 010°55'0 0.0
2016-Jul-22 08:06N 55°43' E 010°55'0 0.1
2016-Jul-22 07:33N 55°43' E 010°54'0 0.0
2016-Jul-22 05:33N 55°43' E 010°54'0 0.0
2016-Jul-22 04:33N 55°43' E 010°54'0 0.0
2016-Jul-22 03:33N 55°43' E 010°54'0 0.0
2016-Jul-22 02:27N 55°43' E 010°54'0 0.1
2016-Jul-22 01:33N 55°43' E 010°54'0 0.1
2016-Jul-22 00:33N 55°43' E 010°55'0 0.0
2016-Jul-21 23:33N 55°43' E 010°55'0 0.0
2016-Jul-21 22:15N 55°43' E 010°55'0 0.1
2016-Jul-21 21:27N 55°43' E 010°55'0 0.0
2016-Jul-21 06:12N 55°43' E 010°54'0 0.0
2016-Jul-21 05:33N 55°43' E 010°54'0 0.0
2016-Jul-21 04:33N 55°43' E 010°54'0 0.0
2016-Jul-21 03:33N 55°43' E 010°54'0 0.0
2016-Jul-21 02:33N 55°43' E 010°54'0 0.1
2016-Jul-21 01:27N 55°43' E 010°54'0 0.1
2016-Jul-21 00:33N 55°43' E 010°55'0 0.0
2016-Jul-20 16:03N 55°43' E 010°55'55 3.6
2016-Jul-20 00:33N 56°32' E 011°38'1212.0
2016-Jul-19 23:33N 56°43' E 011°49'1211.9
2016-Jul-19 22:34N 56°54' E 011°47'1212.2
2016-Jul-19 21:33N 57°06' E 011°39'1212.1
2016-Jul-19 20:33N 57°17' E 011°32'1312.8
2016-Jul-19 19:33N 57°29' E 011°22'1212.0
2016-Jul-19 18:33N 57°37' E 011°05'1212.2
2016-Jul-19 17:33N 57°46' E 010°49'1111.3
2016-Jul-19 16:33N 57°47' E 010°28'1410.7
2016-Jul-19 15:15N 57°45' E 010°02'811.2
2016-Jul-19 14:33N 57°45' E 009°47'1111.2
2016-Jul-19 13:33N 57°44' E 009°26'1211.4
2016-Jul-19 12:30N 57°43' E 009°04'1110.6
2016-Jul-19 11:29N 57°42' E 008°43'1111.7
2016-Jul-19 10:30N 57°41' E 008°22'2411.8
2016-Jul-19 08:27N 57°41' E 007°37'1511.5
2016-Jul-19 07:11N 57°42' E 007°09'2911.0
2016-Jul-19 04:34N 57°51' E 006°18'1211.5
2016-Jul-19 03:33N 57°59' E 006°02'1211.6
2016-Jul-19 02:32N 58°07' E 005°46'1111.3
2016-Jul-19 01:32N 58°14' E 005°30'1512.5
2016-Jul-19 00:19N 58°23' E 005°07'912.1
2016-Jul-18 23:33N 58°30' E 004°55'1212.2
2016-Jul-18 22:33N 58°38' E 004°37'1611.9
2016-Jul-18 21:14N 58°48' E 004°13'  

Dump ship's entire track history